sensor_id;sensor_type;location;lat;lon;timestamp;pressure;altitude;pressure_sealevel;temperature;humidity
9822;BME280;4950;46.042;14.472;2023-04-27T00:00:12;98088.63;;;11.90;66.89
9822;BME280;4950;46.042;14.472;2023-04-27T00:02:39;98082.13;;;11.86;66.94
9822;BME280;4950;46.042;14.472;2023-04-27T00:05:06;98077.91;;;11.85;67.27
9822;BME280;4950;46.042;14.472;2023-04-27T00:07:35;98077.72;;;11.86;67.37
9822;BME280;4950;46.042;14.472;2023-04-27T00:10:03;98076.13;;;11.85;67.44
9822;BME280;4950;46.042;14.472;2023-04-27T00:12:30;98075.50;;;11.83;67.33
9822;BME280;4950;46.042;14.472;2023-04-27T00:14:56;98073.16;;;11.89;66.87
9822;BME280;4950;46.042;14.472;2023-04-27T00:17:23;98071.22;;;11.91;66.82
9822;BME280;4950;46.042;14.472;2023-04-27T00:19:50;98079.66;;;11.93;66.51
9822;BME280;4950;46.042;14.472;2023-04-27T00:22:16;98075.06;;;11.95;66.80
9822;BME280;4950;46.042;14.472;2023-04-27T00:24:43;98083.88;;;11.94;66.47
9822;BME280;4950;46.042;14.472;2023-04-27T00:27:11;98076.53;;;11.97;66.46
9822;BME280;4950;46.042;14.472;2023-04-27T00:29:38;98078.13;;;11.98;66.57
9822;BME280;4950;46.042;14.472;2023-04-27T00:32:07;98083.34;;;11.98;66.75
9822;BME280;4950;46.042;14.472;2023-04-27T00:34:34;98081.53;;;11.99;66.52
9822;BME280;4950;46.042;14.472;2023-04-27T00:37:00;98089.97;;;12.01;66.53
9822;BME280;4950;46.042;14.472;2023-04-27T00:39:27;98086.56;;;12.00;66.55
9822;BME280;4950;46.042;14.472;2023-04-27T00:41:53;98092.22;;;12.04;66.30
9822;BME280;4950;46.042;14.472;2023-04-27T00:44:25;98091.50;;;11.95;65.29
9822;BME280;4950;46.042;14.472;2023-04-27T00:46:52;98090.72;;;11.86;64.12
9822;BME280;4950;46.042;14.472;2023-04-27T00:49:20;98094.28;;;11.94;63.93
9822;BME280;4950;46.042;14.472;2023-04-27T00:51:46;98091.50;;;11.95;62.67
9822;BME280;4950;46.042;14.472;2023-04-27T00:54:14;98091.94;;;11.99;62.82
9822;BME280;4950;46.042;14.472;2023-04-27T00:56:42;98095.09;;;11.94;62.69
9822;BME280;4950;46.042;14.472;2023-04-27T00:59:08;98098.69;;;11.93;62.50
9822;BME280;4950;46.042;14.472;2023-04-27T01:01:36;98092.47;;;11.94;62.01
9822;BME280;4950;46.042;14.472;2023-04-27T01:04:03;98095.88;;;11.95;62.19
9822;BME280;4950;46.042;14.472;2023-04-27T01:06:30;98095.16;;;12.01;61.10
9822;BME280;4950;46.042;14.472;2023-04-27T01:08:57;98095.16;;;12.01;60.59
9822;BME280;4950;46.042;14.472;2023-04-27T01:11:23;98092.38;;;11.88;60.46
9822;BME280;4950;46.042;14.472;2023-04-27T01:13:50;98096.25;;;11.92;60.16
9822;BME280;4950;46.042;14.472;2023-04-27T01:16:18;98096.72;;;11.95;59.79
9822;BME280;4950;46.042;14.472;2023-04-27T01:18:46;98100.91;;;11.96;59.67
9822;BME280;4950;46.042;14.472;2023-04-27T01:21:12;98103.34;;;11.98;59.51
9822;BME280;4950;46.042;14.472;2023-04-27T01:23:41;98098.16;;;11.98;60.13
9822;BME280;4950;46.042;14.472;2023-04-27T01:26:07;98097.78;;;12.01;60.33
9822;BME280;4950;46.042;14.472;2023-04-27T01:28:36;98098.78;;;12.00;60.33
9822;BME280;4950;46.042;14.472;2023-04-27T01:31:02;98098.16;;;11.98;60.67
9822;BME280;4950;46.042;14.472;2023-04-27T01:33:29;98102.44;;;11.91;61.34
9822;BME280;4950;46.042;14.472;2023-04-27T01:35:55;98104.06;;;11.92;61.43
9822;BME280;4950;46.042;14.472;2023-04-27T01:38:22;98103.75;;;11.86;61.42
9822;BME280;4950;46.042;14.472;2023-04-27T01:40:50;98114.50;;;11.83;61.02
9822;BME280;4950;46.042;14.472;2023-04-27T01:43:19;98112.19;;;11.89;60.09
9822;BME280;4950;46.042;14.472;2023-04-27T01:45:46;98112.25;;;11.80;60.13
9822;BME280;4950;46.042;14.472;2023-04-27T01:48:13;98121.22;;;11.78;60.31
9822;BME280;4950;46.042;14.472;2023-04-27T01:50:40;98115.25;;;11.69;60.36
9822;BME280;4950;46.042;14.472;2023-04-27T01:53:07;98115.63;;;11.66;60.67
9822;BME280;4950;46.042;14.472;2023-04-27T01:55:33;98114.81;;;11.65;60.68
9822;BME280;4950;46.042;14.472;2023-04-27T01:58:02;98121.47;;;11.68;60.36
9822;BME280;4950;46.042;14.472;2023-04-27T02:00:28;98121.09;;;11.71;60.31
9822;BME280;4950;46.042;14.472;2023-04-27T02:02:56;98121.56;;;11.75;60.74
9822;BME280;4950;46.042;14.472;2023-04-27T02:05:24;98118.03;;;11.68;60.85
9822;BME280;4950;46.042;14.472;2023-04-27T02:07:51;98117.59;;;11.64;60.42
9822;BME280;4950;46.042;14.472;2023-04-27T02:10:17;98117.22;;;11.67;60.30
9822;BME280;4950;46.042;14.472;2023-04-27T02:12:46;98120.94;;;11.73;60.34
9822;BME280;4950;46.042;14.472;2023-04-27T02:15:14;98125.50;;;11.71;60.39
9822;BME280;4950;46.042;14.472;2023-04-27T02:17:41;98120.94;;;11.73;60.55
9822;BME280;4950;46.042;14.472;2023-04-27T02:20:09;98131.56;;;11.86;60.23
9822;BME280;4950;46.042;14.472;2023-04-27T02:22:39;98124.16;;;11.75;61.02
9822;BME280;4950;46.042;14.472;2023-04-27T02:25:07;98127.06;;;11.57;61.75
9822;BME280;4950;46.042;14.472;2023-04-27T02:27:36;98130.88;;;11.46;62.62
9822;BME280;4950;46.042;14.472;2023-04-27T02:30:03;98132.97;;;11.51;61.72
9822;BME280;4950;46.042;14.472;2023-04-27T02:32:31;98133.66;;;11.44;61.91
9822;BME280;4950;46.042;14.472;2023-04-27T02:34:58;98139.03;;;11.43;62.16
9822;BME280;4950;46.042;14.472;2023-04-27T02:37:25;98134.81;;;11.42;62.46
9822;BME280;4950;46.042;14.472;2023-04-27T02:39:51;98134.31;;;11.46;62.45
9822;BME280;4950;46.042;14.472;2023-04-27T02:42:18;98131.06;;;11.44;62.00
9822;BME280;4950;46.042;14.472;2023-04-27T02:44:45;98130.44;;;11.42;62.28
9822;BME280;4950;46.042;14.472;2023-04-27T02:47:12;98137.75;;;11.39;62.73
9822;BME280;4950;46.042;14.472;2023-04-27T02:49:40;98138.72;;;11.38;63.19
9822;BME280;4950;46.042;14.472;2023-04-27T02:52:07;98137.47;;;11.34;63.18
9822;BME280;4950;46.042;14.472;2023-04-27T02:54:33;98137.00;;;11.30;63.10
9822;BME280;4950;46.042;14.472;2023-04-27T02:57:00;98143.53;;;11.26;63.20
9822;BME280;4950;46.042;14.472;2023-04-27T02:59:27;98139.97;;;11.27;63.15
9822;BME280;4950;46.042;14.472;2023-04-27T03:01:54;98145.81;;;11.21;63.18
9822;BME280;4950;46.042;14.472;2023-04-27T03:04:20;98142.88;;;11.24;63.83
9822;BME280;4950;46.042;14.472;2023-04-27T03:06:49;98144.84;;;11.22;63.57
9822;BME280;4950;46.042;14.472;2023-04-27T03:09:15;98144.03;;;11.21;64.03
9822;BME280;4950;46.042;14.472;2023-04-27T03:11:42;98150.22;;;11.20;64.15
9822;BME280;4950;46.042;14.472;2023-04-27T03:14:08;98137.75;;;11.16;64.70
9822;BME280;4950;46.042;14.472;2023-04-27T03:16:36;98148.19;;;11.07;65.24
9822;BME280;4950;46.042;14.472;2023-04-27T03:19:03;98150.94;;;11.06;65.84
9822;BME280;4950;46.042;14.472;2023-04-27T03:21:30;98155.66;;;11.02;66.49
9822;BME280;4950;46.042;14.472;2023-04-27T03:23:58;98159.09;;;10.95;66.70
9822;BME280;4950;46.042;14.472;2023-04-27T03:26:25;98154.91;;;10.94;67.29
9822;BME280;4950;46.042;14.472;2023-04-27T03:28:51;98162.69;;;10.94;67.70
9822;BME280;4950;46.042;14.472;2023-04-27T03:31:18;98161.91;;;10.85;68.63
9822;BME280;4950;46.042;14.472;2023-04-27T03:33:45;98158.56;;;10.68;69.34
9822;BME280;4950;46.042;14.472;2023-04-27T03:36:11;98155.19;;;10.59;70.31
9822;BME280;4950;46.042;14.472;2023-04-27T03:38:38;98160.06;;;10.54;70.28
9822;BME280;4950;46.042;14.472;2023-04-27T03:41:06;98158.78;;;10.50;70.95
9822;BME280;4950;46.042;14.472;2023-04-27T03:43:33;98159.09;;;10.55;71.02
9822;BME280;4950;46.042;14.472;2023-04-27T03:45:59;98155.50;;;10.56;70.86
9822;BME280;4950;46.042;14.472;2023-04-27T03:48:26;98155.88;;;10.53;70.74
9822;BME280;4950;46.042;14.472;2023-04-27T03:50:52;98154.22;;;10.52;70.69
9822;BME280;4950;46.042;14.472;2023-04-27T03:53:19;98146.78;;;10.49;70.79
9822;BME280;4950;46.042;14.472;2023-04-27T03:55:45;98145.03;;;10.41;70.88
9822;BME280;4950;46.042;14.472;2023-04-27T03:58:13;98161.91;;;10.37;71.29
9822;BME280;4950;46.042;14.472;2023-04-27T04:00:41;98167.25;;;10.36;71.38
9822;BME280;4950;46.042;14.472;2023-04-27T04:03:08;98169.66;;;10.29;71.35
9822;BME280;4950;46.042;14.472;2023-04-27T04:05:34;98177.16;;;10.32;71.36
9822;BME280;4950;46.042;14.472;2023-04-27T04:08:01;98172.44;;;10.27;71.31
9822;BME280;4950;46.042;14.472;2023-04-27T04:10:28;98172.25;;;10.29;71.40
9822;BME280;4950;46.042;14.472;2023-04-27T04:12:54;98174.56;;;10.32;71.27
9822;BME280;4950;46.042;14.472;2023-04-27T04:15:22;98173.56;;;10.25;71.42
9822;BME280;4950;46.042;14.472;2023-04-27T04:17:49;98185.75;;;10.08;72.44
9822;BME280;4950;46.042;14.472;2023-04-27T04:20:16;98187.69;;;9.98;72.51
9822;BME280;4950;46.042;14.472;2023-04-27T04:22:42;98185.59;;;9.93;72.84
9822;BME280;4950;46.042;14.472;2023-04-27T04:25:09;98185.91;;;9.98;72.64
9822;BME280;4950;46.042;14.472;2023-04-27T04:27:37;98193.22;;;9.95;72.75
9822;BME280;4950;46.042;14.472;2023-04-27T04:30:04;98185.28;;;9.96;72.52
9822;BME280;4950;46.042;14.472;2023-04-27T04:32:33;98183.47;;;9.97;72.02
9822;BME280;4950;46.042;14.472;2023-04-27T04:35:02;98177.00;;;9.93;72.56
9822;BME280;4950;46.042;14.472;2023-04-27T04:37:31;98188.53;;;9.90;72.81
9822;BME280;4950;46.042;14.472;2023-04-27T04:39:58;98193.53;;;9.83;72.78
9822;BME280;4950;46.042;14.472;2023-04-27T04:42:25;98200.66;;;9.81;73.27
9822;BME280;4950;46.042;14.472;2023-04-27T04:44:51;98206.16;;;9.78;73.08
9822;BME280;4950;46.042;14.472;2023-04-27T04:47:18;98205.84;;;9.73;73.72
9822;BME280;4950;46.042;14.472;2023-04-27T04:49:47;98218.00;;;9.73;73.95
9822;BME280;4950;46.042;14.472;2023-04-27T04:52:13;98222.69;;;9.69;74.42
9822;BME280;4950;46.042;14.472;2023-04-27T04:54:40;98221.53;;;9.72;74.22
9822;BME280;4950;46.042;14.472;2023-04-27T04:57:06;98226.25;;;9.76;73.73
9822;BME280;4950;46.042;14.472;2023-04-27T04:59:33;98227.88;;;9.77;73.94
9822;BME280;4950;46.042;14.472;2023-04-27T05:02:00;98230.31;;;9.79;74.21
9822;BME280;4950;46.042;14.472;2023-04-27T05:04:27;98239.38;;;9.83;74.13
9822;BME280;4950;46.042;14.472;2023-04-27T05:06:54;98237.09;;;9.88;73.98
9822;BME280;4950;46.042;14.472;2023-04-27T05:09:21;98229.34;;;9.88;74.29
9822;BME280;4950;46.042;14.472;2023-04-27T05:11:48;98231.78;;;9.89;74.44
9822;BME280;4950;46.042;14.472;2023-04-27T05:14:14;98233.56;;;9.97;74.41
9822;BME280;4950;46.042;14.472;2023-04-27T05:16:41;98240.19;;;10.00;74.50
9822;BME280;4950;46.042;14.472;2023-04-27T05:19:08;98247.66;;;10.03;73.80
9822;BME280;4950;46.042;14.472;2023-04-27T05:21:34;98245.41;;;10.08;73.85
9822;BME280;4950;46.042;14.472;2023-04-27T05:24:02;98249.78;;;10.16;73.68
9822;BME280;4950;46.042;14.472;2023-04-27T05:26:29;98241.03;;;10.17;73.57
9822;BME280;4950;46.042;14.472;2023-04-27T05:28:55;98248.00;;;10.24;73.22
9822;BME280;4950;46.042;14.472;2023-04-27T05:31:22;98240.69;;;10.28;72.96
9822;BME280;4950;46.042;14.472;2023-04-27T05:33:48;98240.22;;;10.33;72.62
9822;BME280;4950;46.042;14.472;2023-04-27T05:36:15;98236.69;;;10.34;71.42
9822;BME280;4950;46.042;14.472;2023-04-27T05:38:42;98236.53;;;10.35;71.46
9822;BME280;4950;46.042;14.472;2023-04-27T05:41:10;98233.09;;;10.35;71.51
9822;BME280;4950;46.042;14.472;2023-04-27T05:43:36;98230.97;;;10.38;71.29
9822;BME280;4950;46.042;14.472;2023-04-27T05:46:03;98231.78;;;10.39;70.90
9822;BME280;4950;46.042;14.472;2023-04-27T05:48:30;98226.13;;;10.43;70.60
9822;BME280;4950;46.042;14.472;2023-04-27T05:50:59;98227.56;;;10.46;69.55
9822;BME280;4950;46.042;14.472;2023-04-27T05:53:27;98232.59;;;10.47;68.73
9822;BME280;4950;46.042;14.472;2023-04-27T05:55:53;98237.63;;;10.49;68.67
9822;BME280;4950;46.042;14.472;2023-04-27T05:58:22;98238.13;;;10.53;68.78
9822;BME280;4950;46.042;14.472;2023-04-27T06:00:48;98231.78;;;10.55;68.96
9822;BME280;4950;46.042;14.472;2023-04-27T06:03:15;98228.53;;;10.61;68.53
9822;BME280;4950;46.042;14.472;2023-04-27T06:05:41;98232.72;;;10.71;66.92
9822;BME280;4950;46.042;14.472;2023-04-27T06:08:10;98221.66;;;10.77;66.74
9822;BME280;4950;46.042;14.472;2023-04-27T06:10:36;98218.72;;;10.80;66.94
9822;BME280;4950;46.042;14.472;2023-04-27T06:13:03;98223.75;;;10.81;65.78
9822;BME280;4950;46.042;14.472;2023-04-27T06:15:31;98219.41;;;10.65;66.94
9822;BME280;4950;46.042;14.472;2023-04-27T06:17:58;98221.69;;;10.69;67.51
9822;BME280;4950;46.042;14.472;2023-04-27T06:20:24;98212.59;;;10.73;67.05
9822;BME280;4950;46.042;14.472;2023-04-27T06:22:51;98204.31;;;10.77;67.23
9822;BME280;4950;46.042;14.472;2023-04-27T06:25:18;98221.44;;;10.95;66.90
9822;BME280;4950;46.042;14.472;2023-04-27T06:27:44;98220.16;;;10.91;66.97
9822;BME280;4950;46.042;14.472;2023-04-27T06:30:12;98218.72;;;10.88;68.68
9822;BME280;4950;46.042;14.472;2023-04-27T06:32:40;98209.47;;;10.85;68.77
9822;BME280;4950;46.042;14.472;2023-04-27T06:35:07;98224.41;;;10.83;68.46
9822;BME280;4950;46.042;14.472;2023-04-27T06:37:34;98252.69;;;10.78;68.57
9822;BME280;4950;46.042;14.472;2023-04-27T06:40:00;98270.22;;;10.76;68.32
9822;BME280;4950;46.042;14.472;2023-04-27T06:42:28;98270.38;;;10.75;68.08
9822;BME280;4950;46.042;14.472;2023-04-27T06:44:54;98269.00;;;10.95;64.81
9822;BME280;4950;46.042;14.472;2023-04-27T06:47:21;98274.84;;;11.05;64.17
9822;BME280;4950;46.042;14.472;2023-04-27T06:49:49;98268.97;;;11.12;63.57
9822;BME280;4950;46.042;14.472;2023-04-27T06:52:16;98277.06;;;11.17;62.48
9822;BME280;4950;46.042;14.472;2023-04-27T06:54:43;98268.47;;;11.16;62.69
9822;BME280;4950;46.042;14.472;2023-04-27T06:57:09;98266.81;;;11.23;60.70
9822;BME280;4950;46.042;14.472;2023-04-27T06:59:36;98264.19;;;11.32;60.18
9822;BME280;4950;46.042;14.472;2023-04-27T07:02:03;98255.22;;;11.42;60.11
9822;BME280;4950;46.042;14.472;2023-04-27T07:04:29;98249.44;;;11.55;59.96
9822;BME280;4950;46.042;14.472;2023-04-27T07:06:57;98244.97;;;11.72;57.26
9822;BME280;4950;46.042;14.472;2023-04-27T07:09:24;98238.47;;;11.99;58.00
9822;BME280;4950;46.042;14.472;2023-04-27T07:11:51;98238.94;;;12.03;57.29
9822;BME280;4950;46.042;14.472;2023-04-27T07:14:18;98222.41;;;11.96;57.54
9822;BME280;4950;46.042;14.472;2023-04-27T07:16:45;98234.16;;;12.07;56.21
9822;BME280;4950;46.042;14.472;2023-04-27T07:19:11;98243.56;;;11.84;56.53
9822;BME280;4950;46.042;14.472;2023-04-27T07:21:38;98246.78;;;11.95;56.63
9822;BME280;4950;46.042;14.472;2023-04-27T07:24:07;98240.47;;;11.89;56.83
9822;BME280;4950;46.042;14.472;2023-04-27T07:26:33;98244.75;;;11.82;58.48
9822;BME280;4950;46.042;14.472;2023-04-27T07:29:00;98229.41;;;11.87;58.64
9822;BME280;4950;46.042;14.472;2023-04-27T07:31:27;98229.72;;;11.92;57.82
9822;BME280;4950;46.042;14.472;2023-04-27T07:33:54;98230.66;;;11.99;57.82
9822;BME280;4950;46.042;14.472;2023-04-27T07:36:20;98235.00;;;12.07;56.09
9822;BME280;4950;46.042;14.472;2023-04-27T07:38:47;98236.19;;;12.19;54.24
9822;BME280;4950;46.042;14.472;2023-04-27T07:41:15;98237.56;;;12.30;53.92
9822;BME280;4950;46.042;14.472;2023-04-27T07:43:42;98246.81;;;12.33;54.29
9822;BME280;4950;46.042;14.472;2023-04-27T07:46:08;98243.34;;;12.40;54.63
9822;BME280;4950;46.042;14.472;2023-04-27T07:48:36;98236.63;;;12.46;52.79
9822;BME280;4950;46.042;14.472;2023-04-27T07:51:03;98231.69;;;12.51;53.67
9822;BME280;4950;46.042;14.472;2023-04-27T07:53:30;98244.63;;;12.59;52.82
9822;BME280;4950;46.042;14.472;2023-04-27T07:55:57;98253.72;;;12.78;52.53
9822;BME280;4950;46.042;14.472;2023-04-27T07:58:25;98254.63;;;12.86;51.78
9822;BME280;4950;46.042;14.472;2023-04-27T08:00:51;98253.09;;;12.91;51.65
9822;BME280;4950;46.042;14.472;2023-04-27T08:03:18;98256.97;;;12.95;51.13
9822;BME280;4950;46.042;14.472;2023-04-27T08:05:44;98255.78;;;12.98;51.43
9822;BME280;4950;46.042;14.472;2023-04-27T08:08:11;98250.69;;;13.04;51.68
9822;BME280;4950;46.042;14.472;2023-04-27T08:10:39;98243.91;;;13.10;51.79
9822;BME280;4950;46.042;14.472;2023-04-27T08:13:07;98250.03;;;13.17;51.61
9822;BME280;4950;46.042;14.472;2023-04-27T08:15:35;98247.69;;;13.22;51.70
9822;BME280;4950;46.042;14.472;2023-04-27T08:18:02;98242.72;;;13.28;51.80
9822;BME280;4950;46.042;14.472;2023-04-27T08:20:29;98239.84;;;13.37;50.98
9822;BME280;4950;46.042;14.472;2023-04-27T08:22:55;98239.13;;;13.43;50.69
9822;BME280;4950;46.042;14.472;2023-04-27T08:25:22;98238.81;;;13.53;50.07
9822;BME280;4950;46.042;14.472;2023-04-27T08:27:49;98231.88;;;13.60;50.47
9822;BME280;4950;46.042;14.472;2023-04-27T08:30:15;98224.16;;;13.67;50.53
9822;BME280;4950;46.042;14.472;2023-04-27T08:32:43;98214.97;;;13.71;49.96
9822;BME280;4950;46.042;14.472;2023-04-27T08:35:10;98216.56;;;13.94;48.14
9822;BME280;4950;46.042;14.472;2023-04-27T08:37:37;98216.19;;;13.97;47.90
9822;BME280;4950;46.042;14.472;2023-04-27T08:40:05;98223.31;;;13.88;48.80
9822;BME280;4950;46.042;14.472;2023-04-27T08:42:32;98221.09;;;13.85;48.96
9822;BME280;4950;46.042;14.472;2023-04-27T08:44:59;98220.53;;;13.90;48.61
9822;BME280;4950;46.042;14.472;2023-04-27T08:47:25;98222.59;;;13.94;48.62
9822;BME280;4950;46.042;14.472;2023-04-27T08:49:53;98217.03;;;14.04;48.77
9822;BME280;4950;46.042;14.472;2023-04-27T08:52:20;98218.72;;;14.12;47.96
9822;BME280;4950;46.042;14.472;2023-04-27T08:54:46;98224.22;;;14.23;48.49
9822;BME280;4950;46.042;14.472;2023-04-27T08:57:14;98219.69;;;14.32;48.54
9822;BME280;4950;46.042;14.472;2023-04-27T08:59:41;98220.34;;;14.41;48.29
9822;BME280;4950;46.042;14.472;2023-04-27T09:02:17;98213.56;;;14.47;47.85
9822;BME280;4950;46.042;14.472;2023-04-27T09:04:43;98215.00;;;14.49;47.35
9822;BME280;4950;46.042;14.472;2023-04-27T09:07:13;98223.25;;;14.53;46.99
9822;BME280;4950;46.042;14.472;2023-04-27T09:09:40;98220.94;;;14.65;47.14
9822;BME280;4950;46.042;14.472;2023-04-27T09:12:14;98226.81;;;14.67;47.87
9822;BME280;4950;46.042;14.472;2023-04-27T09:14:42;98217.38;;;14.72;48.56
9822;BME280;4950;46.042;14.472;2023-04-27T09:17:09;98220.88;;;14.86;47.68
9822;BME280;4950;46.042;14.472;2023-04-27T09:19:35;98213.25;;;14.91;47.06
9822;BME280;4950;46.042;14.472;2023-04-27T09:22:03;98216.91;;;14.97;46.55
9822;BME280;4950;46.042;14.472;2023-04-27T09:24:32;98212.13;;;15.07;46.73
9822;BME280;4950;46.042;14.472;2023-04-27T09:26:59;98207.34;;;15.17;46.32
9822;BME280;4950;46.042;14.472;2023-04-27T09:29:31;98206.75;;;15.29;45.36
9822;BME280;4950;46.042;14.472;2023-04-27T09:31:58;98203.13;;;15.23;45.56
9822;BME280;4950;46.042;14.472;2023-04-27T09:34:25;98199.53;;;15.24;46.41
9822;BME280;4950;46.042;14.472;2023-04-27T09:36:52;98208.75;;;15.20;46.32
9822;BME280;4950;46.042;14.472;2023-04-27T09:39:18;98205.97;;;15.28;46.53
9822;BME280;4950;46.042;14.472;2023-04-27T09:41:47;98198.16;;;15.42;46.22
9822;BME280;4950;46.042;14.472;2023-04-27T09:44:15;98202.78;;;15.46;45.33
9822;BME280;4950;46.042;14.472;2023-04-27T09:46:42;98202.81;;;15.53;44.78
9822;BME280;4950;46.042;14.472;2023-04-27T09:49:11;98202.44;;;15.63;44.65
9822;BME280;4950;46.042;14.472;2023-04-27T09:51:38;98198.00;;;15.70;45.33
9822;BME280;4950;46.042;14.472;2023-04-27T09:54:06;98194.44;;;15.77;45.20
9822;BME280;4950;46.042;14.472;2023-04-27T09:56:41;98194.03;;;15.81;44.55
9822;BME280;4950;46.042;14.472;2023-04-27T09:59:34;98184.59;;;15.86;44.39
9822;BME280;4950;46.042;14.472;2023-04-27T10:02:10;98184.59;;;15.93;44.44
9822;BME280;4950;46.042;14.472;2023-04-27T10:04:56;98184.00;;;15.97;44.82
9822;BME280;4950;46.042;14.472;2023-04-27T10:07:27;98188.41;;;15.97;45.21
9822;BME280;4950;46.042;14.472;2023-04-27T10:10:00;98189.63;;;16.01;44.74
9822;BME280;4950;46.042;14.472;2023-04-27T10:12:32;98184.97;;;16.03;45.00
9822;BME280;4950;46.042;14.472;2023-04-27T10:15:13;98181.97;;;15.99;43.76
9822;BME280;4950;46.042;14.472;2023-04-27T10:17:47;98186.22;;;16.07;44.68
9822;BME280;4950;46.042;14.472;2023-04-27T10:20:14;98183.59;;;16.14;44.41
9822;BME280;4950;46.042;14.472;2023-04-27T10:22:43;98177.72;;;16.18;43.70
9822;BME280;4950;46.042;14.472;2023-04-27T10:25:16;98169.06;;;16.25;44.53
9822;BME280;4950;46.042;14.472;2023-04-27T10:27:47;98171.06;;;16.36;44.23
9822;BME280;4950;46.042;14.472;2023-04-27T10:30:18;98176.50;;;16.41;43.18
9822;BME280;4950;46.042;14.472;2023-04-27T10:32:52;98175.72;;;16.41;42.95
9822;BME280;4950;46.042;14.472;2023-04-27T10:35:19;98170.47;;;16.34;43.25
9822;BME280;4950;46.042;14.472;2023-04-27T10:37:46;98173.31;;;16.12;43.53
9822;BME280;4950;46.042;14.472;2023-04-27T10:40:14;98171.09;;;16.16;43.90
9822;BME280;4950;46.042;14.472;2023-04-27T10:42:43;98166.44;;;16.25;43.75
9822;BME280;4950;46.042;14.472;2023-04-27T10:45:10;98165.66;;;16.17;43.19
9822;BME280;4950;46.042;14.472;2023-04-27T10:47:41;98169.47;;;16.28;43.29
9822;BME280;4950;46.042;14.472;2023-04-27T10:50:10;98166.25;;;16.33;44.38
9822;BME280;4950;46.042;14.472;2023-04-27T10:52:39;98162.81;;;16.39;45.13
9822;BME280;4950;46.042;14.472;2023-04-27T10:55:14;98160.94;;;16.46;44.30
9822;BME280;4950;46.042;14.472;2023-04-27T10:57:48;98158.53;;;16.58;44.58
9822;BME280;4950;46.042;14.472;2023-04-27T11:00:20;98160.09;;;16.66;44.85
9822;BME280;4950;46.042;14.472;2023-04-27T11:02:49;98152.81;;;16.74;45.23
9822;BME280;4950;46.042;14.472;2023-04-27T11:05:16;98152.03;;;16.67;43.95
9822;BME280;4950;46.042;14.472;2023-04-27T11:07:43;98152.88;;;16.68;44.75
9822;BME280;4950;46.042;14.472;2023-04-27T11:10:14;98146.56;;;16.75;43.58
9822;BME280;4950;46.042;14.472;2023-04-27T11:12:41;98148.19;;;16.83;43.19
9822;BME280;4950;46.042;14.472;2023-04-27T11:15:08;98147.19;;;16.84;44.70
9822;BME280;4950;46.042;14.472;2023-04-27T11:17:35;98144.75;;;16.89;43.10
9822;BME280;4950;46.042;14.472;2023-04-27T11:20:03;98145.34;;;16.91;43.50
9822;BME280;4950;46.042;14.472;2023-04-27T11:22:31;98144.72;;;16.96;43.94
9822;BME280;4950;46.042;14.472;2023-04-27T11:24:59;98135.00;;;17.03;43.97
9822;BME280;4950;46.042;14.472;2023-04-27T11:27:35;98142.41;;;17.13;42.95
9822;BME280;4950;46.042;14.472;2023-04-27T11:30:03;98141.38;;;17.14;42.43
9822;BME280;4950;46.042;14.472;2023-04-27T11:32:31;98137.31;;;17.25;42.46
9822;BME280;4950;46.042;14.472;2023-04-27T11:34:58;98139.28;;;17.29;41.47
9822;BME280;4950;46.042;14.472;2023-04-27T11:37:26;98132.19;;;17.36;42.13
9822;BME280;4950;46.042;14.472;2023-04-27T11:39:54;98132.53;;;17.47;42.92
9822;BME280;4950;46.042;14.472;2023-04-27T11:42:26;98139.53;;;17.60;43.86
9822;BME280;4950;46.042;14.472;2023-04-27T11:44:54;98131.69;;;17.78;43.28
9822;BME280;4950;46.042;14.472;2023-04-27T11:47:22;98136.28;;;17.89;42.23
9822;BME280;4950;46.042;14.472;2023-04-27T11:49:50;98132.72;;;18.02;42.03
9822;BME280;4950;46.042;14.472;2023-04-27T11:52:17;98128.41;;;18.14;41.14
9822;BME280;4950;46.042;14.472;2023-04-27T11:54:49;98126.22;;;18.30;41.90
9822;BME280;4950;46.042;14.472;2023-04-27T11:57:23;98133.09;;;18.49;40.95
9822;BME280;4950;46.042;14.472;2023-04-27T11:59:51;98130.97;;;18.58;40.80
9822;BME280;4950;46.042;14.472;2023-04-27T12:02:18;98130.09;;;18.64;41.00
9822;BME280;4950;46.042;14.472;2023-04-27T12:04:46;98133.25;;;18.73;40.19
9822;BME280;4950;46.042;14.472;2023-04-27T12:07:12;98122.78;;;18.66;39.36
9822;BME280;4950;46.042;14.472;2023-04-27T12:09:39;98123.47;;;18.80;39.88
9822;BME280;4950;46.042;14.472;2023-04-27T12:12:07;98120.97;;;18.85;39.87
9822;BME280;4950;46.042;14.472;2023-04-27T12:14:34;98127.84;;;18.86;39.32
9822;BME280;4950;46.042;14.472;2023-04-27T12:17:01;98127.94;;;18.80;38.70
9822;BME280;4950;46.042;14.472;2023-04-27T12:19:27;98128.88;;;18.85;38.84
9822;BME280;4950;46.042;14.472;2023-04-27T12:21:56;98121.63;;;18.99;39.11
9822;BME280;4950;46.042;14.472;2023-04-27T12:24:23;98117.50;;;19.03;38.73
9822;BME280;4950;46.042;14.472;2023-04-27T12:26:50;98119.34;;;19.03;39.82
9822;BME280;4950;46.042;14.472;2023-04-27T12:29:18;98117.88;;;19.07;39.51
9822;BME280;4950;46.042;14.472;2023-04-27T12:31:44;98111.56;;;19.08;38.80
9822;BME280;4950;46.042;14.472;2023-04-27T12:34:11;98107.81;;;19.16;39.43
9822;BME280;4950;46.042;14.472;2023-04-27T12:36:38;98105.47;;;19.26;38.73
9822;BME280;4950;46.042;14.472;2023-04-27T12:39:12;98098.41;;;19.38;39.84
9822;BME280;4950;46.042;14.472;2023-04-27T12:41:40;98104.03;;;19.42;38.43
9822;BME280;4950;46.042;14.472;2023-04-27T12:44:06;98102.50;;;19.34;38.39
9822;BME280;4950;46.042;14.472;2023-04-27T12:46:34;98088.28;;;19.23;38.72
9822;BME280;4950;46.042;14.472;2023-04-27T12:49:01;98089.72;;;19.38;39.32
9822;BME280;4950;46.042;14.472;2023-04-27T12:51:28;98086.75;;;19.46;38.46
9822;BME280;4950;46.042;14.472;2023-04-27T12:53:54;98082.94;;;19.30;38.81
9822;BME280;4950;46.042;14.472;2023-04-27T12:56:21;98074.53;;;19.21;39.08
9822;BME280;4950;46.042;14.472;2023-04-27T12:58:48;98074.50;;;19.09;39.07
9822;BME280;4950;46.042;14.472;2023-04-27T13:01:15;98069.03;;;19.11;39.32
9822;BME280;4950;46.042;14.472;2023-04-27T13:03:43;98072.69;;;19.10;39.13
9822;BME280;4950;46.042;14.472;2023-04-27T13:06:10;98070.31;;;19.20;39.00
9822;BME280;4950;46.042;14.472;2023-04-27T13:08:36;98080.75;;;19.39;39.08
9822;BME280;4950;46.042;14.472;2023-04-27T13:11:03;98069.78;;;19.42;38.73
9822;BME280;4950;46.042;14.472;2023-04-27T13:13:30;98062.13;;;19.40;39.60